Terminal Aerodrome Forecast
Issued by NWS

Home | Current Version | Previous Version | Graphics & Text | Print | Product List | Glossary On
Versions: 1 2 3 4 5 6 7 8 9 10 11 12 13 14 15 16 17 18 19 20 21 22 23 24 25 26 27 28 29 30 31 32 33
811
FTUS43 KGRB 312331
TAFRHI
TAF
KRHI 312331Z 0100/0124 15010KT P6SM SCT030 OVC060
      TEMPO 0100/0101 -SHRA BKN025
     FM010100 12007KT P6SM SHRA SCT020 OVC030
      TEMPO 0101/0105 4SM TSRA BKN020CB
     FM010600 15005KT 5SM SHRA OVC010
     FM010800 16005KT P6SM -SHRA OVC003
     FM011300 18006KT P6SM SCT008 BKN050
     FM011500 20007KT P6SM BKN110
     FM012000 23012KT P6SM SCT130
     FM012300 24010KT P6SM BKN060=

USA.gov is the U.S. government's official web portal to all federal, state and local government web resources and services.